sensor_id;sensor_type;location;lat;lon;timestamp;temperature;humidity
61412;DHT22;47278;49.732;7.690;2022-11-15T00:00:30;7.70;99.90
61412;DHT22;47278;49.732;7.690;2022-11-15T00:02:55;7.70;99.90
61412;DHT22;47278;49.732;7.690;2022-11-15T00:05:21;7.70;99.90
61412;DHT22;47278;49.732;7.690;2022-11-15T00:07:47;7.70;99.90
61412;DHT22;47278;49.732;7.690;2022-11-15T00:10:12;8.70;99.90
61412;DHT22;47278;49.732;7.690;2022-11-15T00:12:38;7.70;99.90
61412;DHT22;47278;49.732;7.690;2022-11-15T00:15:04;7.80;99.90
61412;DHT22;47278;49.732;7.690;2022-11-15T00:17:29;7.70;99.90
61412;DHT22;47278;49.732;7.690;2022-11-15T00:19:55;8.90;99.90
61412;DHT22;47278;49.732;7.690;2022-11-15T00:22:21;7.80;99.90
61412;DHT22;47278;49.732;7.690;2022-11-15T00:24:46;7.80;99.90
61412;DHT22;47278;49.732;7.690;2022-11-15T00:27:12;7.80;99.90
61412;DHT22;47278;49.732;7.690;2022-11-15T00:29:37;7.90;99.90
61412;DHT22;47278;49.732;7.690;2022-11-15T00:32:04;7.90;99.90
61412;DHT22;47278;49.732;7.690;2022-11-15T00:34:30;8.00;99.90
61412;DHT22;47278;49.732;7.690;2022-11-15T00:36:55;8.10;99.90
61412;DHT22;47278;49.732;7.690;2022-11-15T00:39:21;8.00;99.90
61412;DHT22;47278;49.732;7.690;2022-11-15T00:41:47;8.10;99.90
61412;DHT22;47278;49.732;7.690;2022-11-15T00:44:12;8.10;99.90
61412;DHT22;47278;49.732;7.690;2022-11-15T00:46:38;8.10;99.90
61412;DHT22;47278;49.732;7.690;2022-11-15T00:49:03;8.10;99.90
61412;DHT22;47278;49.732;7.690;2022-11-15T00:51:29;8.10;99.90
61412;DHT22;47278;49.732;7.690;2022-11-15T00:53:54;8.20;99.90
61412;DHT22;47278;49.732;7.690;2022-11-15T00:56:20;8.20;99.90
61412;DHT22;47278;49.732;7.690;2022-11-15T00:58:45;8.30;99.90
61412;DHT22;47278;49.732;7.690;2022-11-15T01:01:13;8.30;99.90
61412;DHT22;47278;49.732;7.690;2022-11-15T01:03:39;8.40;99.90
61412;DHT22;47278;49.732;7.690;2022-11-15T01:06:05;8.50;99.90
61412;DHT22;47278;49.732;7.690;2022-11-15T01:08:31;8.50;99.90
61412;DHT22;47278;49.732;7.690;2022-11-15T01:11:03;8.50;99.90
61412;DHT22;47278;49.732;7.690;2022-11-15T01:13:30;8.50;99.90
61412;DHT22;47278;49.732;7.690;2022-11-15T01:15:55;8.50;99.90
61412;DHT22;47278;49.732;7.690;2022-11-15T01:18:21;8.60;99.90
61412;DHT22;47278;49.732;7.690;2022-11-15T01:20:46;8.70;99.90
61412;DHT22;47278;49.732;7.690;2022-11-15T01:23:12;8.60;99.90
61412;DHT22;47278;49.732;7.690;2022-11-15T01:25:38;8.60;99.90
61412;DHT22;47278;49.732;7.690;2022-11-15T01:28:03;8.60;99.90
61412;DHT22;47278;49.732;7.690;2022-11-15T01:30:29;8.60;99.90
61412;DHT22;47278;49.732;7.690;2022-11-15T01:32:54;8.50;99.90
61412;DHT22;47278;49.732;7.690;2022-11-15T01:35:20;8.50;99.90
61412;DHT22;47278;49.732;7.690;2022-11-15T01:37:46;8.50;99.90
61412;DHT22;47278;49.732;7.690;2022-11-15T01:40:11;8.50;99.90
61412;DHT22;47278;49.732;7.690;2022-11-15T01:42:37;8.50;99.90
61412;DHT22;47278;49.732;7.690;2022-11-15T01:45:03;8.40;99.90
61412;DHT22;47278;49.732;7.690;2022-11-15T01:47:33;8.40;99.90
61412;DHT22;47278;49.732;7.690;2022-11-15T01:50:02;8.40;99.90
61412;DHT22;47278;49.732;7.690;2022-11-15T01:52:30;8.50;99.90
61412;DHT22;47278;49.732;7.690;2022-11-15T01:54:58;8.50;99.90
61412;DHT22;47278;49.732;7.690;2022-11-15T01:57:24;8.50;99.90
61412;DHT22;47278;49.732;7.690;2022-11-15T01:59:50;8.50;99.90
61412;DHT22;47278;49.732;7.690;2022-11-15T02:02:16;8.50;99.90
61412;DHT22;47278;49.732;7.690;2022-11-15T02:04:43;8.50;99.90
61412;DHT22;47278;49.732;7.690;2022-11-15T02:07:09;8.50;99.90
61412;DHT22;47278;49.732;7.690;2022-11-15T02:09:36;8.60;99.90
61412;DHT22;47278;49.732;7.690;2022-11-15T02:12:02;8.60;99.90
61412;DHT22;47278;49.732;7.690;2022-11-15T02:14:28;8.60;99.90
61412;DHT22;47278;49.732;7.690;2022-11-15T02:33:01;8.80;99.90
61412;DHT22;47278;49.732;7.690;2022-11-15T02:40:45;8.90;99.90
61412;DHT22;47278;49.732;7.690;2022-11-15T02:43:12;8.90;99.90
61412;DHT22;47278;49.732;7.690;2022-11-15T02:46:18;8.80;99.90
61412;DHT22;47278;49.732;7.690;2022-11-15T02:48:46;8.70;99.90
61412;DHT22;47278;49.732;7.690;2022-11-15T02:51:12;8.80;99.90
61412;DHT22;47278;49.732;7.690;2022-11-15T02:53:38;8.80;99.90
61412;DHT22;47278;49.732;7.690;2022-11-15T02:56:04;8.80;99.90
61412;DHT22;47278;49.732;7.690;2022-11-15T03:06:27;8.90;99.90
61412;DHT22;47278;49.732;7.690;2022-11-15T03:08:57;8.90;99.90
61412;DHT22;47278;49.732;7.690;2022-11-15T03:11:25;8.90;99.90
61412;DHT22;47278;49.732;7.690;2022-11-15T03:13:58;9.00;99.90
61412;DHT22;47278;49.732;7.690;2022-11-15T03:18:53;8.80;99.90
61412;DHT22;47278;49.732;7.690;2022-11-15T03:21:20;8.80;99.90
61412;DHT22;47278;49.732;7.690;2022-11-15T03:23:47;8.80;99.90
61412;DHT22;47278;49.732;7.690;2022-11-15T03:26:13;8.90;99.90
61412;DHT22;47278;49.732;7.690;2022-11-15T03:28:44;8.80;99.90
61412;DHT22;47278;49.732;7.690;2022-11-15T03:31:11;8.80;99.90
61412;DHT22;47278;49.732;7.690;2022-11-15T03:33:56;8.80;99.90
61412;DHT22;47278;49.732;7.690;2022-11-15T03:36:22;8.90;99.90
61412;DHT22;47278;49.732;7.690;2022-11-15T03:38:49;8.90;99.90
61412;DHT22;47278;49.732;7.690;2022-11-15T03:41:16;8.90;99.90
61412;DHT22;47278;49.732;7.690;2022-11-15T03:43:47;8.90;99.90
61412;DHT22;47278;49.732;7.690;2022-11-15T03:46:34;8.70;99.90
61412;DHT22;47278;49.732;7.690;2022-11-15T03:49:10;8.80;99.90
61412;DHT22;47278;49.732;7.690;2022-11-15T03:51:37;8.70;99.90
61412;DHT22;47278;49.732;7.690;2022-11-15T03:54:06;8.70;99.90
61412;DHT22;47278;49.732;7.690;2022-11-15T03:56:32;8.60;99.90
61412;DHT22;47278;49.732;7.690;2022-11-15T03:58:57;8.50;99.90
61412;DHT22;47278;49.732;7.690;2022-11-15T04:01:23;8.60;99.90
61412;DHT22;47278;49.732;7.690;2022-11-15T04:03:49;8.60;99.90
61412;DHT22;47278;49.732;7.690;2022-11-15T04:06:14;8.70;99.90
61412;DHT22;47278;49.732;7.690;2022-11-15T04:08:40;8.70;99.90
61412;DHT22;47278;49.732;7.690;2022-11-15T04:11:05;8.70;99.90
61412;DHT22;47278;49.732;7.690;2022-11-15T04:13:31;8.60;99.90
61412;DHT22;47278;49.732;7.690;2022-11-15T04:15:56;8.70;99.90
61412;DHT22;47278;49.732;7.690;2022-11-15T04:18:22;8.60;99.90
61412;DHT22;47278;49.732;7.690;2022-11-15T04:20:47;8.70;99.90
61412;DHT22;47278;49.732;7.690;2022-11-15T04:23:31;8.70;99.90
61412;DHT22;47278;49.732;7.690;2022-11-15T04:26:17;8.80;99.90
61412;DHT22;47278;49.732;7.690;2022-11-15T04:28:43;8.90;99.90
61412;DHT22;47278;49.732;7.690;2022-11-15T04:31:27;8.90;99.90
61412;DHT22;47278;49.732;7.690;2022-11-15T04:33:53;9.10;99.90
61412;DHT22;47278;49.732;7.690;2022-11-15T04:36:19;9.20;99.90
61412;DHT22;47278;49.732;7.690;2022-11-15T04:39:03;9.20;99.90
61412;DHT22;47278;49.732;7.690;2022-11-15T04:41:29;9.00;99.90
61412;DHT22;47278;49.732;7.690;2022-11-15T04:43:55;9.00;99.90
61412;DHT22;47278;49.732;7.690;2022-11-15T04:46:21;9.00;99.90
61412;DHT22;47278;49.732;7.690;2022-11-15T04:48:46;9.00;99.90
61412;DHT22;47278;49.732;7.690;2022-11-15T04:51:12;8.90;99.90
61412;DHT22;47278;49.732;7.690;2022-11-15T04:53:38;8.90;99.90
61412;DHT22;47278;49.732;7.690;2022-11-15T04:56:03;8.90;99.90
61412;DHT22;47278;49.732;7.690;2022-11-15T04:58:29;8.90;99.90
61412;DHT22;47278;49.732;7.690;2022-11-15T05:00:54;9.00;99.90
61412;DHT22;47278;49.732;7.690;2022-11-15T05:03:20;9.20;99.90
61412;DHT22;47278;49.732;7.690;2022-11-15T05:06:04;9.20;99.90
61412;DHT22;47278;49.732;7.690;2022-11-15T05:08:30;9.00;99.90
61412;DHT22;47278;49.732;7.690;2022-11-15T05:10:56;9.00;99.90
61412;DHT22;47278;49.732;7.690;2022-11-15T05:13:21;8.90;99.90
61412;DHT22;47278;49.732;7.690;2022-11-15T05:15:47;8.80;99.90
61412;DHT22;47278;49.732;7.690;2022-11-15T05:18:13;8.70;99.90
61412;DHT22;47278;49.732;7.690;2022-11-15T05:20:38;6.50;99.90
61412;DHT22;47278;49.732;7.690;2022-11-15T05:23:04;8.70;99.90
61412;DHT22;47278;49.732;7.690;2022-11-15T05:25:30;8.70;99.90
61412;DHT22;47278;49.732;7.690;2022-11-15T05:27:55;8.50;99.90
61412;DHT22;47278;49.732;7.690;2022-11-15T05:30:21;8.40;99.90
61412;DHT22;47278;49.732;7.690;2022-11-15T05:32:47;8.30;99.90
61412;DHT22;47278;49.732;7.690;2022-11-15T05:35:13;8.00;99.90
61412;DHT22;47278;49.732;7.690;2022-11-15T05:37:40;8.20;99.90
61412;DHT22;47278;49.732;7.690;2022-11-15T05:40:06;8.20;99.90
61412;DHT22;47278;49.732;7.690;2022-11-15T05:42:31;8.10;99.90
61412;DHT22;47278;49.732;7.690;2022-11-15T05:44:57;8.00;99.90
61412;DHT22;47278;49.732;7.690;2022-11-15T05:47:24;7.90;99.90
61412;DHT22;47278;49.732;7.690;2022-11-15T05:49:50;7.80;99.90
61412;DHT22;47278;49.732;7.690;2022-11-15T05:52:18;7.90;99.90
61412;DHT22;47278;49.732;7.690;2022-11-15T05:54:44;7.90;99.90
61412;DHT22;47278;49.732;7.690;2022-11-15T05:57:09;7.90;99.90
61412;DHT22;47278;49.732;7.690;2022-11-15T05:59:35;8.00;99.90
61412;DHT22;47278;49.732;7.690;2022-11-15T06:02:01;7.90;99.90
61412;DHT22;47278;49.732;7.690;2022-11-15T06:04:26;7.80;99.90
61412;DHT22;47278;49.732;7.690;2022-11-15T06:06:52;7.90;99.90
61412;DHT22;47278;49.732;7.690;2022-11-15T06:09:17;7.90;99.90
61412;DHT22;47278;49.732;7.690;2022-11-15T06:11:43;7.90;99.90
61412;DHT22;47278;49.732;7.690;2022-11-15T06:14:09;7.90;99.90
61412;DHT22;47278;49.732;7.690;2022-11-15T06:16:34;7.90;99.90
61412;DHT22;47278;49.732;7.690;2022-11-15T06:19:00;7.80;99.90
61412;DHT22;47278;49.732;7.690;2022-11-15T06:21:25;7.80;99.90
61412;DHT22;47278;49.732;7.690;2022-11-15T06:23:53;8.30;99.90
61412;DHT22;47278;49.732;7.690;2022-11-15T06:26:18;7.80;99.90
61412;DHT22;47278;49.732;7.690;2022-11-15T06:28:44;7.80;99.90
61412;DHT22;47278;49.732;7.690;2022-11-15T06:31:10;7.80;99.90
61412;DHT22;47278;49.732;7.690;2022-11-15T06:33:39;7.90;99.90
61412;DHT22;47278;49.732;7.690;2022-11-15T06:36:06;8.00;99.90
61412;DHT22;47278;49.732;7.690;2022-11-15T06:38:31;7.90;99.90
61412;DHT22;47278;49.732;7.690;2022-11-15T06:41:04;7.90;99.90
61412;DHT22;47278;49.732;7.690;2022-11-15T06:43:30;7.90;99.90
61412;DHT22;47278;49.732;7.690;2022-11-15T06:45:57;8.00;99.90
61412;DHT22;47278;49.732;7.690;2022-11-15T06:48:22;8.00;99.90
61412;DHT22;47278;49.732;7.690;2022-11-15T06:50:51;8.00;99.90
61412;DHT22;47278;49.732;7.690;2022-11-15T06:53:17;8.00;99.90
61412;DHT22;47278;49.732;7.690;2022-11-15T06:55:43;7.90;99.90
61412;DHT22;47278;49.732;7.690;2022-11-15T06:58:08;7.90;99.90
61412;DHT22;47278;49.732;7.690;2022-11-15T07:00:34;7.80;99.90
61412;DHT22;47278;49.732;7.690;2022-11-15T07:03:00;7.80;99.90
61412;DHT22;47278;49.732;7.690;2022-11-15T07:05:26;7.70;99.90
61412;DHT22;47278;49.732;7.690;2022-11-15T07:07:55;7.70;99.90
61412;DHT22;47278;49.732;7.690;2022-11-15T07:10:21;7.70;99.90
61412;DHT22;47278;49.732;7.690;2022-11-15T07:12:48;7.70;99.90
61412;DHT22;47278;49.732;7.690;2022-11-15T07:15:15;7.80;99.90
61412;DHT22;47278;49.732;7.690;2022-11-15T07:17:40;7.90;99.90
61412;DHT22;47278;49.732;7.690;2022-11-15T07:20:06;7.90;99.90
61412;DHT22;47278;49.732;7.690;2022-11-15T07:22:32;7.90;99.90
61412;DHT22;47278;49.732;7.690;2022-11-15T07:24:57;9.20;99.90
61412;DHT22;47278;49.732;7.690;2022-11-15T07:27:23;7.80;99.90
61412;DHT22;47278;49.732;7.690;2022-11-15T07:29:48;7.90;99.90
61412;DHT22;47278;49.732;7.690;2022-11-15T07:32:14;9.70;99.90
61412;DHT22;47278;49.732;7.690;2022-11-15T07:34:39;7.80;99.90
61412;DHT22;47278;49.732;7.690;2022-11-15T07:37:05;7.80;99.90
61412;DHT22;47278;49.732;7.690;2022-11-15T07:39:30;7.80;99.90
61412;DHT22;47278;49.732;7.690;2022-11-15T07:41:56;7.80;99.90
61412;DHT22;47278;49.732;7.690;2022-11-15T07:44:41;7.90;99.90
61412;DHT22;47278;49.732;7.690;2022-11-15T07:47:07;7.90;99.90
61412;DHT22;47278;49.732;7.690;2022-11-15T07:49:33;8.10;99.90
61412;DHT22;47278;49.732;7.690;2022-11-15T07:51:58;8.20;99.90
61412;DHT22;47278;49.732;7.690;2022-11-15T07:54:24;8.20;99.90
61412;DHT22;47278;49.732;7.690;2022-11-15T07:56:49;8.20;99.90
61412;DHT22;47278;49.732;7.690;2022-11-15T07:59:15;8.20;99.90
61412;DHT22;47278;49.732;7.690;2022-11-15T08:01:40;8.30;99.90
61412;DHT22;47278;49.732;7.690;2022-11-15T08:04:06;8.30;99.90
61412;DHT22;47278;49.732;7.690;2022-11-15T08:06:31;8.30;99.90
61412;DHT22;47278;49.732;7.690;2022-11-15T08:08:57;8.30;99.90
61412;DHT22;47278;49.732;7.690;2022-11-15T08:11:22;8.40;99.90
61412;DHT22;47278;49.732;7.690;2022-11-15T08:13:48;8.40;99.90
61412;DHT22;47278;49.732;7.690;2022-11-15T08:16:13;8.40;99.90
61412;DHT22;47278;49.732;7.690;2022-11-15T08:18:39;8.50;99.90
61412;DHT22;47278;49.732;7.690;2022-11-15T08:21:05;8.50;99.90
61412;DHT22;47278;49.732;7.690;2022-11-15T08:23:31;8.50;99.90
61412;DHT22;47278;49.732;7.690;2022-11-15T08:26:01;8.60;99.90
61412;DHT22;47278;49.732;7.690;2022-11-15T08:28:27;8.70;99.90
61412;DHT22;47278;49.732;7.690;2022-11-15T08:30:53;8.80;99.90
61412;DHT22;47278;49.732;7.690;2022-11-15T08:33:18;8.90;99.90
61412;DHT22;47278;49.732;7.690;2022-11-15T08:35:44;9.00;99.90
61412;DHT22;47278;49.732;7.690;2022-11-15T08:38:10;9.10;99.90
61412;DHT22;47278;49.732;7.690;2022-11-15T08:40:35;9.20;99.90
61412;DHT22;47278;49.732;7.690;2022-11-15T08:43:01;9.30;99.90
61412;DHT22;47278;49.732;7.690;2022-11-15T08:45:28;9.40;99.90
61412;DHT22;47278;49.732;7.690;2022-11-15T08:47:54;9.40;99.90
61412;DHT22;47278;49.732;7.690;2022-11-15T08:50:19;9.50;99.90
61412;DHT22;47278;49.732;7.690;2022-11-15T08:52:45;9.50;99.90
61412;DHT22;47278;49.732;7.690;2022-11-15T08:55:10;9.50;99.90
61412;DHT22;47278;49.732;7.690;2022-11-15T08:57:36;9.60;99.90
61412;DHT22;47278;49.732;7.690;2022-11-15T09:00:02;9.60;99.90
61412;DHT22;47278;49.732;7.690;2022-11-15T09:02:28;9.70;99.90
61412;DHT22;47278;49.732;7.690;2022-11-15T09:04:53;9.70;99.90
61412;DHT22;47278;49.732;7.690;2022-11-15T09:07:19;9.70;99.90
61412;DHT22;47278;49.732;7.690;2022-11-15T09:09:44;9.80;99.90
61412;DHT22;47278;49.732;7.690;2022-11-15T09:12:10;9.80;99.90
61412;DHT22;47278;49.732;7.690;2022-11-15T09:14:36;9.90;99.90
61412;DHT22;47278;49.732;7.690;2022-11-15T09:17:01;10.00;99.90
61412;DHT22;47278;49.732;7.690;2022-11-15T09:19:27;10.00;99.90
61412;DHT22;47278;49.732;7.690;2022-11-15T09:21:53;10.10;99.90
61412;DHT22;47278;49.732;7.690;2022-11-15T09:24:18;10.10;99.90
61412;DHT22;47278;49.732;7.690;2022-11-15T09:26:44;10.20;99.90
61412;DHT22;47278;49.732;7.690;2022-11-15T09:29:09;10.30;99.90
61412;DHT22;47278;49.732;7.690;2022-11-15T09:31:35;10.30;99.90
61412;DHT22;47278;49.732;7.690;2022-11-15T09:34:00;10.40;99.90
61412;DHT22;47278;49.732;7.690;2022-11-15T09:36:26;10.40;99.90
61412;DHT22;47278;49.732;7.690;2022-11-15T09:38:52;10.50;99.90
61412;DHT22;47278;49.732;7.690;2022-11-15T09:41:33;10.50;99.90
61412;DHT22;47278;49.732;7.690;2022-11-15T09:46:51;10.70;99.90
61412;DHT22;47278;49.732;7.690;2022-11-15T09:49:20;10.80;99.90
61412;DHT22;47278;49.732;7.690;2022-11-15T09:51:47;10.90;99.90
61412;DHT22;47278;49.732;7.690;2022-11-15T09:54:31;11.00;99.90
61412;DHT22;47278;49.732;7.690;2022-11-15T10:04:38;11.20;99.90
61412;DHT22;47278;49.732;7.690;2022-11-15T10:07:16;11.30;99.90
61412;DHT22;47278;49.732;7.690;2022-11-15T10:09:49;11.30;99.90
61412;DHT22;47278;49.732;7.690;2022-11-15T10:12:16;11.40;99.90
61412;DHT22;47278;49.732;7.690;2022-11-15T10:14:42;11.50;99.90
61412;DHT22;47278;49.732;7.690;2022-11-15T10:22:46;11.80;99.90
61412;DHT22;47278;49.732;7.690;2022-11-15T10:27:40;12.00;99.90
61412;DHT22;47278;49.732;7.690;2022-11-15T10:30:13;12.00;99.90
61412;DHT22;47278;49.732;7.690;2022-11-15T10:32:40;12.00;99.90
61412;DHT22;47278;49.732;7.690;2022-11-15T10:35:21;12.10;99.90
61412;DHT22;47278;49.732;7.690;2022-11-15T10:37:47;12.10;99.90
61412;DHT22;47278;49.732;7.690;2022-11-15T10:40:15;12.20;99.90
61412;DHT22;47278;49.732;7.690;2022-11-15T10:42:41;12.10;99.90
61412;DHT22;47278;49.732;7.690;2022-11-15T10:45:27;12.30;99.90
61412;DHT22;47278;49.732;7.690;2022-11-15T10:47:53;12.20;99.90
61412;DHT22;47278;49.732;7.690;2022-11-15T10:50:52;12.40;99.90
61412;DHT22;47278;49.732;7.690;2022-11-15T10:53:21;12.40;99.90
61412;DHT22;47278;49.732;7.690;2022-11-15T10:55:49;12.60;99.90
61412;DHT22;47278;49.732;7.690;2022-11-15T10:58:22;12.60;99.90
61412;DHT22;47278;49.732;7.690;2022-11-15T11:00:53;12.50;99.90
61412;DHT22;47278;49.732;7.690;2022-11-15T11:03:29;12.70;99.90
61412;DHT22;47278;49.732;7.690;2022-11-15T11:06:06;12.70;99.90
61412;DHT22;47278;49.732;7.690;2022-11-15T11:08:32;12.70;99.90
61412;DHT22;47278;49.732;7.690;2022-11-15T11:10:59;12.80;99.90
61412;DHT22;47278;49.732;7.690;2022-11-15T11:13:26;12.70;99.90
61412;DHT22;47278;49.732;7.690;2022-11-15T11:18:43;13.10;99.90
61412;DHT22;47278;49.732;7.690;2022-11-15T11:21:13;13.20;99.90
61412;DHT22;47278;49.732;7.690;2022-11-15T11:23:45;13.40;99.90
61412;DHT22;47278;49.732;7.690;2022-11-15T11:39:21;14.30;99.90
61412;DHT22;47278;49.732;7.690;2022-11-15T11:49:15;14.80;99.90
61412;DHT22;47278;49.732;7.690;2022-11-15T11:51:42;13.10;99.90
61412;DHT22;47278;49.732;7.690;2022-11-15T11:56:34;14.70;99.90
61412;DHT22;47278;49.732;7.690;2022-11-15T12:01:37;14.80;99.90
61412;DHT22;47278;49.732;7.690;2022-11-15T12:04:09;14.80;99.90
61412;DHT22;47278;49.732;7.690;2022-11-15T12:06:41;14.70;99.90
61412;DHT22;47278;49.732;7.690;2022-11-15T12:09:29;14.80;99.90
61412;DHT22;47278;49.732;7.690;2022-11-15T12:12:09;14.70;99.90
61412;DHT22;47278;49.732;7.690;2022-11-15T12:17:31;14.80;99.90
61412;DHT22;47278;49.732;7.690;2022-11-15T12:19:57;14.90;99.90
61412;DHT22;47278;49.732;7.690;2022-11-15T12:25:13;15.20;99.90
61412;DHT22;47278;49.732;7.690;2022-11-15T12:27:40;15.40;99.90
61412;DHT22;47278;49.732;7.690;2022-11-15T12:30:09;15.50;99.90
61412;DHT22;47278;49.732;7.690;2022-11-15T12:32:37;15.60;99.90
61412;DHT22;47278;49.732;7.690;2022-11-15T12:35:03;15.50;99.90
61412;DHT22;47278;49.732;7.690;2022-11-15T12:37:34;15.50;99.90
61412;DHT22;47278;49.732;7.690;2022-11-15T12:45:40;15.50;99.90
61412;DHT22;47278;49.732;7.690;2022-11-15T13:06:37;15.60;99.90
61412;DHT22;47278;49.732;7.690;2022-11-15T13:09:03;15.60;99.90
61412;DHT22;47278;49.732;7.690;2022-11-15T13:11:41;15.60;99.90
61412;DHT22;47278;49.732;7.690;2022-11-15T13:22:18;15.60;99.90
61412;DHT22;47278;49.732;7.690;2022-11-15T13:25:02;15.60;99.90
61412;DHT22;47278;49.732;7.690;2022-11-15T13:27:28;15.60;99.90
61412;DHT22;47278;49.732;7.690;2022-11-15T13:29:53;15.50;99.90
61412;DHT22;47278;49.732;7.690;2022-11-15T13:32:19;15.50;99.90
61412;DHT22;47278;49.732;7.690;2022-11-15T13:34:45;15.50;99.90
61412;DHT22;47278;49.732;7.690;2022-11-15T13:37:33;15.50;99.90
61412;DHT22;47278;49.732;7.690;2022-11-15T13:42:42;15.50;99.90
61412;DHT22;47278;49.732;7.690;2022-11-15T13:45:11;15.40;99.90
61412;DHT22;47278;49.732;7.690;2022-11-15T13:47:38;15.40;99.90
61412;DHT22;47278;49.732;7.690;2022-11-15T13:50:03;15.30;99.90
61412;DHT22;47278;49.732;7.690;2022-11-15T13:52:34;15.40;99.90
61412;DHT22;47278;49.732;7.690;2022-11-15T13:55:15;15.30;99.90
61412;DHT22;47278;49.732;7.690;2022-11-15T13:57:42;15.30;99.90
61412;DHT22;47278;49.732;7.690;2022-11-15T14:00:25;15.30;99.90
61412;DHT22;47278;49.732;7.690;2022-11-15T14:02:50;15.30;99.90
61412;DHT22;47278;49.732;7.690;2022-11-15T14:05:21;15.20;99.90
61412;DHT22;47278;49.732;7.690;2022-11-15T14:08:00;15.10;99.90
61412;DHT22;47278;49.732;7.690;2022-11-15T14:12:56;15.00;99.90
61412;DHT22;47278;49.732;7.690;2022-11-15T14:15:26;15.10;99.90
61412;DHT22;47278;49.732;7.690;2022-11-15T14:17:52;15.30;99.90
61412;DHT22;47278;49.732;7.690;2022-11-15T14:22:56;15.30;99.90
61412;DHT22;47278;49.732;7.690;2022-11-15T14:25:23;15.20;99.90
61412;DHT22;47278;49.732;7.690;2022-11-15T14:30:33;15.50;99.90
61412;DHT22;47278;49.732;7.690;2022-11-15T14:32:58;15.50;99.90
61412;DHT22;47278;49.732;7.690;2022-11-15T14:35:24;15.50;99.90
61412;DHT22;47278;49.732;7.690;2022-11-15T14:37:49;15.50;99.90
61412;DHT22;47278;49.732;7.690;2022-11-15T14:40:16;15.50;99.90
61412;DHT22;47278;49.732;7.690;2022-11-15T14:42:43;15.40;99.90
61412;DHT22;47278;49.732;7.690;2022-11-15T14:45:12;15.30;99.90
61412;DHT22;47278;49.732;7.690;2022-11-15T14:47:39;15.10;99.90
61412;DHT22;47278;49.732;7.690;2022-11-15T14:50:04;15.10;99.90
61412;DHT22;47278;49.732;7.690;2022-11-15T14:52:31;14.90;99.90
61412;DHT22;47278;49.732;7.690;2022-11-15T14:55:01;14.80;99.90
61412;DHT22;47278;49.732;7.690;2022-11-15T14:57:27;14.80;99.90
61412;DHT22;47278;49.732;7.690;2022-11-15T14:59:53;14.70;99.90
61412;DHT22;47278;49.732;7.690;2022-11-15T15:02:20;14.60;99.90
61412;DHT22;47278;49.732;7.690;2022-11-15T15:04:46;14.60;99.90
61412;DHT22;47278;49.732;7.690;2022-11-15T15:07:12;14.50;99.90
61412;DHT22;47278;49.732;7.690;2022-11-15T15:09:37;14.40;99.90
61412;DHT22;47278;49.732;7.690;2022-11-15T15:12:03;14.40;99.90
61412;DHT22;47278;49.732;7.690;2022-11-15T15:14:29;14.30;99.90
61412;DHT22;47278;49.732;7.690;2022-11-15T15:16:54;14.10;99.90
61412;DHT22;47278;49.732;7.690;2022-11-15T15:19:20;14.00;99.90
61412;DHT22;47278;49.732;7.690;2022-11-15T15:21:45;14.00;99.90
61412;DHT22;47278;49.732;7.690;2022-11-15T15:24:13;13.80;99.90
61412;DHT22;47278;49.732;7.690;2022-11-15T15:26:40;13.80;99.90
61412;DHT22;47278;49.732;7.690;2022-11-15T15:29:06;13.60;99.90
61412;DHT22;47278;49.732;7.690;2022-11-15T15:31:33;13.60;99.90
61412;DHT22;47278;49.732;7.690;2022-11-15T15:33:59;13.60;99.90
61412;DHT22;47278;49.732;7.690;2022-11-15T15:36:25;13.60;99.90
61412;DHT22;47278;49.732;7.690;2022-11-15T15:38:50;13.40;99.90
61412;DHT22;47278;49.732;7.690;2022-11-15T15:41:16;13.30;99.90
61412;DHT22;47278;49.732;7.690;2022-11-15T15:43:42;13.40;99.90
61412;DHT22;47278;49.732;7.690;2022-11-15T15:46:09;13.20;99.90
61412;DHT22;47278;49.732;7.690;2022-11-15T15:48:35;13.00;99.90
61412;DHT22;47278;49.732;7.690;2022-11-15T15:51:02;12.90;99.90
61412;DHT22;47278;49.732;7.690;2022-11-15T15:53:28;13.00;99.90
61412;DHT22;47278;49.732;7.690;2022-11-15T15:55:54;12.90;99.90
61412;DHT22;47278;49.732;7.690;2022-11-15T15:58:19;12.90;99.90
61412;DHT22;47278;49.732;7.690;2022-11-15T16:00:45;12.80;99.90
61412;DHT22;47278;49.732;7.690;2022-11-15T16:03:10;12.80;99.90
61412;DHT22;47278;49.732;7.690;2022-11-15T16:05:36;12.70;99.90
61412;DHT22;47278;49.732;7.690;2022-11-15T16:08:01;12.60;99.90
61412;DHT22;47278;49.732;7.690;2022-11-15T16:10:28;12.50;99.90
61412;DHT22;47278;49.732;7.690;2022-11-15T16:12:54;12.50;99.90
61412;DHT22;47278;49.732;7.690;2022-11-15T16:15:21;12.40;99.90
61412;DHT22;47278;49.732;7.690;2022-11-15T16:17:48;12.30;99.90
61412;DHT22;47278;49.732;7.690;2022-11-15T16:20:21;12.30;99.90
61412;DHT22;47278;49.732;7.690;2022-11-15T16:22:47;12.30;99.90
61412;DHT22;47278;49.732;7.690;2022-11-15T16:25:13;12.20;99.90
61412;DHT22;47278;49.732;7.690;2022-11-15T16:27:38;12.20;99.90
61412;DHT22;47278;49.732;7.690;2022-11-15T16:30:17;12.10;99.90
61412;DHT22;47278;49.732;7.690;2022-11-15T16:32:43;12.00;99.90
61412;DHT22;47278;49.732;7.690;2022-11-15T16:35:11;12.00;99.90
61412;DHT22;47278;49.732;7.690;2022-11-15T16:37:40;11.00;99.90
61412;DHT22;47278;49.732;7.690;2022-11-15T16:42:35;11.90;99.90
61412;DHT22;47278;49.732;7.690;2022-11-15T16:45:00;11.80;99.90
61412;DHT22;47278;49.732;7.690;2022-11-15T16:47:26;11.80;99.90
61412;DHT22;47278;49.732;7.690;2022-11-15T16:49:51;11.70;99.90
61412;DHT22;47278;49.732;7.690;2022-11-15T16:52:17;11.70;99.90
61412;DHT22;47278;49.732;7.690;2022-11-15T16:54:42;11.60;99.90
61412;DHT22;47278;49.732;7.690;2022-11-15T16:57:09;11.30;99.90
61412;DHT22;47278;49.732;7.690;2022-11-15T16:59:35;11.60;99.90
61412;DHT22;47278;49.732;7.690;2022-11-15T17:02:00;11.70;99.90
61412;DHT22;47278;49.732;7.690;2022-11-15T17:04:26;11.60;99.90
61412;DHT22;47278;49.732;7.690;2022-11-15T17:06:57;11.60;99.90
61412;DHT22;47278;49.732;7.690;2022-11-15T17:09:23;11.60;99.90
61412;DHT22;47278;49.732;7.690;2022-11-15T17:11:49;11.60;99.90
61412;DHT22;47278;49.732;7.690;2022-11-15T17:14:14;12.90;99.90
61412;DHT22;47278;49.732;7.690;2022-11-15T17:16:40;11.50;99.90
61412;DHT22;47278;49.732;7.690;2022-11-15T17:19:12;11.50;99.90
61412;DHT22;47278;49.732;7.690;2022-11-15T17:21:39;11.50;99.90
61412;DHT22;47278;49.732;7.690;2022-11-15T17:24:05;11.50;99.90
61412;DHT22;47278;49.732;7.690;2022-11-15T17:26:31;11.50;99.90
61412;DHT22;47278;49.732;7.690;2022-11-15T17:28:57;11.50;99.90
61412;DHT22;47278;49.732;7.690;2022-11-15T17:31:23;11.50;99.90
61412;DHT22;47278;49.732;7.690;2022-11-15T17:33:50;11.50;99.90
61412;DHT22;47278;49.732;7.690;2022-11-15T17:36:15;11.50;99.90
61412;DHT22;47278;49.732;7.690;2022-11-15T17:38:41;11.50;99.90
61412;DHT22;47278;49.732;7.690;2022-11-15T17:41:10;11.50;99.90
61412;DHT22;47278;49.732;7.690;2022-11-15T17:43:36;11.50;99.90
61412;DHT22;47278;49.732;7.690;2022-11-15T17:46:06;11.50;99.90
61412;DHT22;47278;49.732;7.690;2022-11-15T17:48:32;11.50;99.90
61412;DHT22;47278;49.732;7.690;2022-11-15T17:50:58;11.50;99.90